sensor_id;sensor_type;location;lat;lon;timestamp;pressure;altitude;pressure_sealevel;temperature;humidity
9746;BME280;4912;50.836;12.958;2022-12-07T00:02:24;97580.59;;;3.83;100.00
9746;BME280;4912;50.836;12.958;2022-12-07T00:04:55;97574.50;;;3.91;100.00
9746;BME280;4912;50.836;12.958;2022-12-07T00:07:25;97577.06;;;3.98;100.00
9746;BME280;4912;50.836;12.958;2022-12-07T00:09:55;97581.78;;;3.98;100.00
9746;BME280;4912;50.836;12.958;2022-12-07T00:12:29;97566.66;;;3.93;100.00
9746;BME280;4912;50.836;12.958;2022-12-07T00:14:59;97572.28;;;3.86;100.00
9746;BME280;4912;50.836;12.958;2022-12-07T00:17:29;97566.91;;;3.83;100.00
9746;BME280;4912;50.836;12.958;2022-12-07T00:20:00;97568.53;;;3.80;100.00
9746;BME280;4912;50.836;12.958;2022-12-07T00:22:31;97561.59;;;3.92;100.00
9746;BME280;4912;50.836;12.958;2022-12-07T00:25:01;97562.97;;;4.00;100.00
9746;BME280;4912;50.836;12.958;2022-12-07T00:27:34;97560.03;;;4.07;100.00
9746;BME280;4912;50.836;12.958;2022-12-07T00:30:06;97555.25;;;4.11;100.00
9746;BME280;4912;50.836;12.958;2022-12-07T00:32:37;97544.66;;;3.97;100.00
9746;BME280;4912;50.836;12.958;2022-12-07T00:35:08;97549.47;;;3.93;100.00
9746;BME280;4912;50.836;12.958;2022-12-07T00:37:38;97549.47;;;3.93;100.00
9746;BME280;4912;50.836;12.958;2022-12-07T00:40:09;97547.06;;;3.79;100.00
9746;BME280;4912;50.836;12.958;2022-12-07T00:42:43;97549.56;;;3.73;100.00
9746;BME280;4912;50.836;12.958;2022-12-07T00:45:13;97549.97;;;3.71;100.00
9746;BME280;4912;50.836;12.958;2022-12-07T00:47:44;97546.03;;;3.72;100.00
9746;BME280;4912;50.836;12.958;2022-12-07T00:50:15;97539.03;;;3.71;100.00
9746;BME280;4912;50.836;12.958;2022-12-07T00:52:45;97549.66;;;3.53;100.00
9746;BME280;4912;50.836;12.958;2022-12-07T00:55:15;97543.06;;;3.51;100.00
9746;BME280;4912;50.836;12.958;2022-12-07T00:57:48;97545.38;;;3.52;100.00
9746;BME280;4912;50.836;12.958;2022-12-07T01:00:19;97543.16;;;3.47;100.00
9746;BME280;4912;50.836;12.958;2022-12-07T01:02:49;97545.38;;;3.52;100.00
9746;BME280;4912;50.836;12.958;2022-12-07T01:05:20;97544.88;;;3.57;100.00
9746;BME280;4912;50.836;12.958;2022-12-07T01:07:50;97537.06;;;3.56;100.00
9746;BME280;4912;50.836;12.958;2022-12-07T01:10:21;97531.25;;;3.54;100.00
9746;BME280;4912;50.836;12.958;2022-12-07T01:12:54;97535.28;;;3.65;100.00
9746;BME280;4912;50.836;12.958;2022-12-07T01:15:24;97535.97;;;3.53;100.00
9746;BME280;4912;50.836;12.958;2022-12-07T01:17:55;97533.81;;;3.61;100.00
9746;BME280;4912;50.836;12.958;2022-12-07T01:20:25;97540.94;;;3.58;100.00
9746;BME280;4912;50.836;12.958;2022-12-07T01:22:55;97541.09;;;3.51;100.00
9746;BME280;4912;50.836;12.958;2022-12-07T01:25:26;97539.81;;;3.40;100.00
9746;BME280;4912;50.836;12.958;2022-12-07T01:27:59;97528.19;;;3.36;100.00
9746;BME280;4912;50.836;12.958;2022-12-07T01:30:29;97533.66;;;3.36;100.00
9746;BME280;4912;50.836;12.958;2022-12-07T01:32:59;97538.38;;;3.35;100.00
9746;BME280;4912;50.836;12.958;2022-12-07T01:35:30;97538.84;;;3.30;100.00
9746;BME280;4912;50.836;12.958;2022-12-07T01:38:03;97534.75;;;3.38;100.00
9746;BME280;4912;50.836;12.958;2022-12-07T01:40:33;97533.75;;;3.32;100.00
9746;BME280;4912;50.836;12.958;2022-12-07T01:43:11;97532.38;;;3.24;100.00
9746;BME280;4912;50.836;12.958;2022-12-07T01:45:45;97538.16;;;3.10;100.00
9746;BME280;4912;50.836;12.958;2022-12-07T01:48:18;97529.34;;;3.18;100.00
9746;BME280;4912;50.836;12.958;2022-12-07T01:50:51;97538.84;;;3.14;100.00
9746;BME280;4912;50.836;12.958;2022-12-07T01:53:25;97534.50;;;3.16;100.00
9746;BME280;4912;50.836;12.958;2022-12-07T01:55:59;97536.47;;;3.16;100.00
9746;BME280;4912;50.836;12.958;2022-12-07T01:58:33;97532.44;;;3.20;100.00
9746;BME280;4912;50.836;12.958;2022-12-07T02:01:04;97527.75;;;3.21;100.00
9746;BME280;4912;50.836;12.958;2022-12-07T02:03:38;97517.47;;;3.09;100.00
9746;BME280;4912;50.836;12.958;2022-12-07T02:06:12;97525.16;;;2.98;100.00
9746;BME280;4912;50.836;12.958;2022-12-07T02:08:46;97527.75;;;2.85;100.00
9746;BME280;4912;50.836;12.958;2022-12-07T02:11:17;97508.84;;;2.94;100.00
9746;BME280;4912;50.836;12.958;2022-12-07T02:13:50;97512.16;;;3.02;100.00
9746;BME280;4912;50.836;12.958;2022-12-07T02:16:28;97526.16;;;2.87;100.00
9746;BME280;4912;50.836;12.958;2022-12-07T02:22:36;97520.31;;;2.69;100.00
9746;BME280;4912;50.836;12.958;2022-12-07T02:25:43;97518.69;;;2.72;100.00
9746;BME280;4912;50.836;12.958;2022-12-07T02:28:28;97514.91;;;2.66;100.00
9746;BME280;4912;50.836;12.958;2022-12-07T02:31:06;97513.81;;;2.63;100.00
9746;BME280;4912;50.836;12.958;2022-12-07T02:33:42;97508.47;;;2.56;100.00
9746;BME280;4912;50.836;12.958;2022-12-07T02:36:18;97495.31;;;2.51;100.00
9746;BME280;4912;50.836;12.958;2022-12-07T02:38:58;97498.88;;;2.48;100.00
9746;BME280;4912;50.836;12.958;2022-12-07T02:41:33;97497.56;;;2.56;100.00
9746;BME280;4912;50.836;12.958;2022-12-07T02:44:08;97488.75;;;2.48;100.00
9746;BME280;4912;50.836;12.958;2022-12-07T02:46:46;97486.28;;;2.54;100.00
9746;BME280;4912;50.836;12.958;2022-12-07T02:49:21;97488.41;;;2.46;100.00
9746;BME280;4912;50.836;12.958;2022-12-07T02:51:53;97486.91;;;2.42;100.00
9746;BME280;4912;50.836;12.958;2022-12-07T02:54:24;97486.22;;;2.38;100.00
9746;BME280;4912;50.836;12.958;2022-12-07T02:57:00;97481.97;;;2.37;100.00
9746;BME280;4912;50.836;12.958;2022-12-07T02:59:47;97484.41;;;2.31;100.00
9746;BME280;4912;50.836;12.958;2022-12-07T03:02:33;97490.72;;;2.28;100.00
9746;BME280;4912;50.836;12.958;2022-12-07T03:05:15;97491.28;;;2.20;100.00
9746;BME280;4912;50.836;12.958;2022-12-07T03:08:00;97485.41;;;2.21;100.00
9746;BME280;4912;50.836;12.958;2022-12-07T03:10:40;97489.31;;;2.20;100.00
9746;BME280;4912;50.836;12.958;2022-12-07T03:13:22;97489.72;;;2.19;100.00
9746;BME280;4912;50.836;12.958;2022-12-07T03:15:58;97481.25;;;2.13;100.00
9746;BME280;4912;50.836;12.958;2022-12-07T03:18:37;97482.03;;;2.14;100.00
9746;BME280;4912;50.836;12.958;2022-12-07T03:21:12;97486.09;;;2.05;100.00
9746;BME280;4912;50.836;12.958;2022-12-07T03:23:47;97485.75;;;2.03;100.00
9746;BME280;4912;50.836;12.958;2022-12-07T03:26:22;97481.75;;;2.08;100.00
9746;BME280;4912;50.836;12.958;2022-12-07T03:28:59;97472.81;;;2.08;100.00
9746;BME280;4912;50.836;12.958;2022-12-07T03:31:34;97473.78;;;2.17;100.00
9746;BME280;4912;50.836;12.958;2022-12-07T03:34:16;97479.66;;;2.16;100.00
9746;BME280;4912;50.836;12.958;2022-12-07T03:36:52;97468.34;;;2.17;100.00
9746;BME280;4912;50.836;12.958;2022-12-07T03:39:29;97469.94;;;2.15;100.00
9746;BME280;4912;50.836;12.958;2022-12-07T03:42:05;97471.13;;;2.14;100.00
9746;BME280;4912;50.836;12.958;2022-12-07T03:44:37;97475.47;;;2.11;100.00
9746;BME280;4912;50.836;12.958;2022-12-07T03:47:13;97473.84;;;2.14;100.00
9746;BME280;4912;50.836;12.958;2022-12-07T03:49:56;97471.84;;;2.18;100.00
9746;BME280;4912;50.836;12.958;2022-12-07T03:52:33;97467.72;;;2.29;100.00
9746;BME280;4912;50.836;12.958;2022-12-07T03:55:11;97467.22;;;2.34;100.00
9746;BME280;4912;50.836;12.958;2022-12-07T03:57:47;97465.66;;;2.33;100.00
9746;BME280;4912;50.836;12.958;2022-12-07T04:00:22;97464.63;;;2.27;100.00
9746;BME280;4912;50.836;12.958;2022-12-07T04:02:53;97452.50;;;2.28;100.00
9746;BME280;4912;50.836;12.958;2022-12-07T04:05:26;97449.44;;;2.26;100.00
9746;BME280;4912;50.836;12.958;2022-12-07T04:07:57;97443.19;;;2.26;100.00
9746;BME280;4912;50.836;12.958;2022-12-07T04:10:28;97438.78;;;2.12;100.00
9746;BME280;4912;50.836;12.958;2022-12-07T04:12:58;97443.34;;;2.19;100.00
9746;BME280;4912;50.836;12.958;2022-12-07T04:15:28;97439.63;;;2.29;100.00
9746;BME280;4912;50.836;12.958;2022-12-07T04:17:58;97433.81;;;2.27;100.00
9746;BME280;4912;50.836;12.958;2022-12-07T04:20:31;97429.22;;;2.24;100.00
9746;BME280;4912;50.836;12.958;2022-12-07T04:23:02;97418.31;;;2.24;100.00
9746;BME280;4912;50.836;12.958;2022-12-07T04:25:32;97415.13;;;2.25;100.00
9746;BME280;4912;50.836;12.958;2022-12-07T04:28:03;97410.94;;;2.21;100.00
9746;BME280;4912;50.836;12.958;2022-12-07T04:30:33;97413.03;;;2.33;100.00
9746;BME280;4912;50.836;12.958;2022-12-07T04:33:03;97413.97;;;2.42;100.00
9746;BME280;4912;50.836;12.958;2022-12-07T04:35:38;97409.38;;;2.39;100.00
9746;BME280;4912;50.836;12.958;2022-12-07T04:38:08;97407.75;;;2.42;99.75
9746;BME280;4912;50.836;12.958;2022-12-07T04:40:39;97407.75;;;2.42;99.25
9746;BME280;4912;50.836;12.958;2022-12-07T04:43:09;97412.63;;;2.34;99.58
9746;BME280;4912;50.836;12.958;2022-12-07T04:45:40;97401.75;;;2.31;99.74
9746;BME280;4912;50.836;12.958;2022-12-07T04:48:15;97401.06;;;2.27;100.00
9746;BME280;4912;50.836;12.958;2022-12-07T04:50:50;97408.84;;;2.28;99.67
9746;BME280;4912;50.836;12.958;2022-12-07T04:53:20;97392.03;;;2.30;99.76
9746;BME280;4912;50.836;12.958;2022-12-07T04:55:51;97402.28;;;2.42;99.11
9746;BME280;4912;50.836;12.958;2022-12-07T04:58:21;97400.13;;;2.53;98.51
9746;BME280;4912;50.836;12.958;2022-12-07T05:00:54;97391.22;;;2.49;97.89
9746;BME280;4912;50.836;12.958;2022-12-07T05:03:25;97393.44;;;2.54;97.59
9746;BME280;4912;50.836;12.958;2022-12-07T05:05:58;97389.72;;;2.64;97.61
9746;BME280;4912;50.836;12.958;2022-12-07T05:08:28;97388.53;;;2.81;97.30
9746;BME280;4912;50.836;12.958;2022-12-07T05:10:59;97391.09;;;2.88;95.76
9746;BME280;4912;50.836;12.958;2022-12-07T05:13:29;97390.06;;;2.82;95.42
9746;BME280;4912;50.836;12.958;2022-12-07T05:16:00;97391.25;;;2.81;95.97
9746;BME280;4912;50.836;12.958;2022-12-07T05:18:30;97388.00;;;2.86;95.75
9746;BME280;4912;50.836;12.958;2022-12-07T05:21:03;97395.19;;;2.97;95.18
9746;BME280;4912;50.836;12.958;2022-12-07T05:23:34;97391.00;;;2.92;95.40
9746;BME280;4912;50.836;12.958;2022-12-07T05:26:04;97392.81;;;2.82;95.61
9746;BME280;4912;50.836;12.958;2022-12-07T05:28:35;97384.78;;;2.75;96.36
9746;BME280;4912;50.836;12.958;2022-12-07T05:31:05;97378.19;;;2.73;97.65
9746;BME280;4912;50.836;12.958;2022-12-07T05:33:35;97378.44;;;2.78;98.86
9746;BME280;4912;50.836;12.958;2022-12-07T05:36:09;97382.72;;;2.79;100.00
9746;BME280;4912;50.836;12.958;2022-12-07T05:38:39;97374.38;;;2.70;100.00
9746;BME280;4912;50.836;12.958;2022-12-07T05:41:13;97368.81;;;2.74;100.00
9746;BME280;4912;50.836;12.958;2022-12-07T05:43:56;97366.31;;;2.79;100.00
9746;BME280;4912;50.836;12.958;2022-12-07T05:46:27;97368.53;;;2.68;100.00
9746;BME280;4912;50.836;12.958;2022-12-07T05:48:57;97362.91;;;2.59;100.00
9746;BME280;4912;50.836;12.958;2022-12-07T05:51:30;97374.94;;;2.62;100.00
9746;BME280;4912;50.836;12.958;2022-12-07T05:54:00;97366.50;;;2.56;100.00
9746;BME280;4912;50.836;12.958;2022-12-07T05:56:30;97369.22;;;2.56;100.00
9746;BME280;4912;50.836;12.958;2022-12-07T05:59:01;97372.31;;;2.58;100.00
9746;BME280;4912;50.836;12.958;2022-12-07T06:01:43;97373.66;;;2.66;100.00
9746;BME280;4912;50.836;12.958;2022-12-07T06:04:14;97367.94;;;2.61;100.00
9746;BME280;4912;50.836;12.958;2022-12-07T06:06:47;97370.00;;;2.57;100.00
9746;BME280;4912;50.836;12.958;2022-12-07T06:09:18;97366.13;;;2.54;100.00
9746;BME280;4912;50.836;12.958;2022-12-07T06:11:49;97363.91;;;2.49;100.00
9746;BME280;4912;50.836;12.958;2022-12-07T06:14:32;97371.00;;;2.46;100.00
9746;BME280;4912;50.836;12.958;2022-12-07T06:17:03;97370.56;;;2.48;100.00
9746;BME280;4912;50.836;12.958;2022-12-07T06:19:34;97374.50;;;2.47;100.00
9746;BME280;4912;50.836;12.958;2022-12-07T06:22:08;97368.88;;;2.54;100.00
9746;BME280;4912;50.836;12.958;2022-12-07T06:24:39;97366.84;;;2.58;100.00
9746;BME280;4912;50.836;12.958;2022-12-07T06:27:10;97367.84;;;2.48;100.00
9746;BME280;4912;50.836;12.958;2022-12-07T06:29:40;97358.03;;;2.51;100.00
9746;BME280;4912;50.836;12.958;2022-12-07T06:32:11;97363.91;;;2.49;100.00
9746;BME280;4912;50.836;12.958;2022-12-07T06:34:41;97360.50;;;2.45;100.00
9746;BME280;4912;50.836;12.958;2022-12-07T06:37:16;97354.69;;;2.43;100.00
9746;BME280;4912;50.836;12.958;2022-12-07T06:39:46;97358.59;;;2.42;100.00
9746;BME280;4912;50.836;12.958;2022-12-07T06:42:16;97358.69;;;2.38;100.00
9746;BME280;4912;50.836;12.958;2022-12-07T06:44:46;97361.34;;;2.42;100.00
9746;BME280;4912;50.836;12.958;2022-12-07T06:47:17;97371.78;;;2.47;100.00
9746;BME280;4912;50.836;12.958;2022-12-07T06:50:08;97365.09;;;2.48;100.00
9746;BME280;4912;50.836;12.958;2022-12-07T06:52:41;97375.44;;;2.40;100.00
9746;BME280;4912;50.836;12.958;2022-12-07T06:55:11;97375.16;;;2.35;100.00
9746;BME280;4912;50.836;12.958;2022-12-07T06:57:42;97374.31;;;2.38;100.00
9746;BME280;4912;50.836;12.958;2022-12-07T07:00:13;97372.75;;;2.37;100.00
9746;BME280;4912;50.836;12.958;2022-12-07T07:02:48;97376.19;;;2.41;100.00
9746;BME280;4912;50.836;12.958;2022-12-07T07:05:19;97377.97;;;2.47;100.00
9746;BME280;4912;50.836;12.958;2022-12-07T07:07:51;97385.50;;;2.60;100.00
9746;BME280;4912;50.836;12.958;2022-12-07T07:10:42;97390.81;;;2.67;100.00
9746;BME280;4912;50.836;12.958;2022-12-07T07:13:12;97395.25;;;2.61;100.00
9746;BME280;4912;50.836;12.958;2022-12-07T07:15:42;97393.63;;;2.47;100.00
9746;BME280;4912;50.836;12.958;2022-12-07T07:18:13;97398.22;;;2.50;100.00
9746;BME280;4912;50.836;12.958;2022-12-07T07:20:43;97394.16;;;2.58;100.00
9746;BME280;4912;50.836;12.958;2022-12-07T07:23:16;97393.38;;;2.58;100.00
9746;BME280;4912;50.836;12.958;2022-12-07T07:25:47;97406.13;;;2.80;100.00
9746;BME280;4912;50.836;12.958;2022-12-07T07:28:18;97396.56;;;2.88;100.00
9746;BME280;4912;50.836;12.958;2022-12-07T07:30:48;97402.69;;;2.93;100.00
9746;BME280;4912;50.836;12.958;2022-12-07T07:33:19;97394.66;;;3.02;100.00
9746;BME280;4912;50.836;12.958;2022-12-07T07:35:49;97404.41;;;3.03;100.00
9746;BME280;4912;50.836;12.958;2022-12-07T07:38:22;97400.47;;;3.04;100.00
9746;BME280;4912;50.836;12.958;2022-12-07T07:40:52;97404.56;;;2.96;100.00
9746;BME280;4912;50.836;12.958;2022-12-07T07:43:22;97394.50;;;2.93;100.00
9746;BME280;4912;50.836;12.958;2022-12-07T07:45:53;97404.91;;;2.98;100.00
9746;BME280;4912;50.836;12.958;2022-12-07T07:48:23;97398.78;;;3.10;100.00
9746;BME280;4912;50.836;12.958;2022-12-07T07:50:54;97403.88;;;3.08;100.00
9746;BME280;4912;50.836;12.958;2022-12-07T07:53:26;97400.06;;;3.05;100.00
9746;BME280;4912;50.836;12.958;2022-12-07T07:55:57;97400.06;;;3.05;100.00
9746;BME280;4912;50.836;12.958;2022-12-07T07:58:27;97405.44;;;3.09;100.00
9746;BME280;4912;50.836;12.958;2022-12-07T08:01:03;97405.75;;;3.27;100.00
9746;BME280;4912;50.836;12.958;2022-12-07T08:03:34;97398.69;;;3.29;100.00
9746;BME280;4912;50.836;12.958;2022-12-07T08:06:05;97405.66;;;3.30;100.00
9746;BME280;4912;50.836;12.958;2022-12-07T08:08:38;97412.13;;;3.37;100.00
9746;BME280;4912;50.836;12.958;2022-12-07T08:11:09;97408.06;;;3.28;100.00
9746;BME280;4912;50.836;12.958;2022-12-07T08:13:39;97412.09;;;3.24;100.00
9746;BME280;4912;50.836;12.958;2022-12-07T08:16:10;97414.38;;;3.25;100.00
9746;BME280;4912;50.836;12.958;2022-12-07T08:18:42;97419.19;;;3.21;100.00
9746;BME280;4912;50.836;12.958;2022-12-07T08:21:14;97413.28;;;3.23;100.00
9746;BME280;4912;50.836;12.958;2022-12-07T08:23:48;97409.69;;;3.26;100.00
9746;BME280;4912;50.836;12.958;2022-12-07T08:26:18;97415.09;;;3.29;100.00
9746;BME280;4912;50.836;12.958;2022-12-07T08:28:48;97416.09;;;3.36;100.00
9746;BME280;4912;50.836;12.958;2022-12-07T08:31:19;97410.00;;;3.44;100.00
9746;BME280;4912;50.836;12.958;2022-12-07T08:33:50;97407.16;;;3.64;100.00
9746;BME280;4912;50.836;12.958;2022-12-07T08:36:20;97411.13;;;3.76;100.00
9746;BME280;4912;50.836;12.958;2022-12-07T08:38:55;97413.28;;;3.97;100.00
9746;BME280;4912;50.836;12.958;2022-12-07T08:41:45;97417.63;;;4.23;100.00
9746;BME280;4912;50.836;12.958;2022-12-07T08:44:15;97422.75;;;4.21;100.00
9746;BME280;4912;50.836;12.958;2022-12-07T08:46:48;97415.09;;;4.16;100.00
9746;BME280;4912;50.836;12.958;2022-12-07T08:49:24;97424.19;;;4.26;100.00
9746;BME280;4912;50.836;12.958;2022-12-07T08:51:56;97419.41;;;4.30;100.00
9746;BME280;4912;50.836;12.958;2022-12-07T08:54:29;97422.00;;;4.21;100.00
9746;BME280;4912;50.836;12.958;2022-12-07T08:57:00;97423.97;;;4.20;100.00
9746;BME280;4912;50.836;12.958;2022-12-07T08:59:31;97427.13;;;4.06;100.00
9746;BME280;4912;50.836;12.958;2022-12-07T09:02:03;97423.25;;;4.03;100.00
9746;BME280;4912;50.836;12.958;2022-12-07T09:04:34;97420.00;;;4.08;100.00
9746;BME280;4912;50.836;12.958;2022-12-07T09:07:04;97420.66;;;4.12;100.00
9746;BME280;4912;50.836;12.958;2022-12-07T09:09:37;97420.75;;;4.09;100.00
9746;BME280;4912;50.836;12.958;2022-12-07T09:12:08;97415.81;;;4.04;100.00
9746;BME280;4912;50.836;12.958;2022-12-07T09:14:39;97416.47;;;4.08;100.00
9746;BME280;4912;50.836;12.958;2022-12-07T09:17:10;97415.94;;;4.13;100.00
9746;BME280;4912;50.836;12.958;2022-12-07T09:19:41;97419.13;;;4.24;100.00
9746;BME280;4912;50.836;12.958;2022-12-07T09:22:12;97420.94;;;4.43;100.00
9746;BME280;4912;50.836;12.958;2022-12-07T09:24:45;97421.63;;;4.98;100.00
9746;BME280;4912;50.836;12.958;2022-12-07T09:27:15;97417.75;;;5.08;100.00
9746;BME280;4912;50.836;12.958;2022-12-07T09:29:46;97418.09;;;5.10;100.00
9746;BME280;4912;50.836;12.958;2022-12-07T09:32:16;97428.28;;;5.22;99.84
9746;BME280;4912;50.836;12.958;2022-12-07T09:34:46;97419.47;;;5.40;99.44
9746;BME280;4912;50.836;12.958;2022-12-07T09:37:17;97422.97;;;5.75;96.58
9746;BME280;4912;50.836;12.958;2022-12-07T09:39:50;97422.97;;;5.41;97.30
9746;BME280;4912;50.836;12.958;2022-12-07T09:42:27;97416.06;;;5.36;97.96
9746;BME280;4912;50.836;12.958;2022-12-07T09:45:00;97416.38;;;5.51;97.65
9746;BME280;4912;50.836;12.958;2022-12-07T09:47:33;97418.34;;;5.50;96.76
9746;BME280;4912;50.836;12.958;2022-12-07T09:50:06;97423.38;;;5.52;95.65
9746;BME280;4912;50.836;12.958;2022-12-07T09:52:42;97415.00;;;5.21;97.13
9746;BME280;4912;50.836;12.958;2022-12-07T09:55:21;97417.88;;;5.05;98.51
9746;BME280;4912;50.836;12.958;2022-12-07T09:57:55;97416.34;;;4.91;99.59
9746;BME280;4912;50.836;12.958;2022-12-07T10:00:25;97412.41;;;4.79;100.00
9746;BME280;4912;50.836;12.958;2022-12-07T10:02:57;97411.97;;;4.81;100.00
9746;BME280;4912;50.836;12.958;2022-12-07T10:05:32;97402.00;;;4.87;100.00
9746;BME280;4912;50.836;12.958;2022-12-07T10:08:11;97398.63;;;4.83;100.00
9746;BME280;4912;50.836;12.958;2022-12-07T10:10:56;97385.56;;;4.62;100.00
9746;BME280;4912;50.836;12.958;2022-12-07T10:13:36;97390.94;;;4.52;100.00
9746;BME280;4912;50.836;12.958;2022-12-07T10:16:34;97394.88;;;4.51;100.00
9746;BME280;4912;50.836;12.958;2022-12-07T10:19:23;97386.31;;;4.49;100.00
9746;BME280;4912;50.836;12.958;2022-12-07T10:22:09;97388.72;;;4.60;100.00
9746;BME280;4912;50.836;12.958;2022-12-07T10:24:41;97393.22;;;4.54;100.00
9746;BME280;4912;50.836;12.958;2022-12-07T10:27:20;97379.75;;;4.60;100.00
9746;BME280;4912;50.836;12.958;2022-12-07T10:29:53;97379.75;;;4.60;100.00
9746;BME280;4912;50.836;12.958;2022-12-07T10:32:30;97383.03;;;4.67;100.00
9746;BME280;4912;50.836;12.958;2022-12-07T10:35:21;97381.84;;;4.68;100.00
9746;BME280;4912;50.836;12.958;2022-12-07T10:37:54;97385.56;;;4.62;100.00
9746;BME280;4912;50.836;12.958;2022-12-07T10:40:31;97387.31;;;4.56;100.00
9746;BME280;4912;50.836;12.958;2022-12-07T10:43:18;97381.84;;;4.56;100.00
9746;BME280;4912;50.836;12.958;2022-12-07T10:46:13;97369.13;;;4.62;100.00
9746;BME280;4912;50.836;12.958;2022-12-07T10:52:20;97381.16;;;4.89;100.00
9746;BME280;4912;50.836;12.958;2022-12-07T10:55:16;97373.81;;;4.74;99.24
9746;BME280;4912;50.836;12.958;2022-12-07T10:58:02;97361.66;;;4.75;99.89
9746;BME280;4912;50.836;12.958;2022-12-07T11:00:46;97357.50;;;4.83;99.55
9746;BME280;4912;50.836;12.958;2022-12-07T11:03:38;97373.69;;;4.90;98.77
9746;BME280;4912;50.836;12.958;2022-12-07T11:06:20;97366.69;;;4.89;98.43
9746;BME280;4912;50.836;12.958;2022-12-07T11:09:04;97363.81;;;5.05;98.57
9746;BME280;4912;50.836;12.958;2022-12-07T11:12:16;97372.25;;;5.11;98.00
9746;BME280;4912;50.836;12.958;2022-12-07T11:14:57;97366.75;;;5.23;97.42
9746;BME280;4912;50.836;12.958;2022-12-07T11:17:40;97357.50;;;5.30;96.54
9746;BME280;4912;50.836;12.958;2022-12-07T11:20:29;97364.34;;;5.13;96.46
9746;BME280;4912;50.836;12.958;2022-12-07T11:23:09;97368.81;;;5.19;96.60
9746;BME280;4912;50.836;12.958;2022-12-07T11:25:51;97358.09;;;5.12;96.86
9746;BME280;4912;50.836;12.958;2022-12-07T11:28:34;97362.84;;;4.99;96.47
9746;BME280;4912;50.836;12.958;2022-12-07T11:31:18;97360.41;;;5.01;97.93
9746;BME280;4912;50.836;12.958;2022-12-07T11:34:03;97363.94;;;4.89;97.62
9746;BME280;4912;50.836;12.958;2022-12-07T11:36:41;97357.94;;;4.94;97.46
9746;BME280;4912;50.836;12.958;2022-12-07T11:39:22;97357.38;;;4.99;97.42
9746;BME280;4912;50.836;12.958;2022-12-07T11:42:01;97354.41;;;5.06;97.32
9746;BME280;4912;50.836;12.958;2022-12-07T11:44:39;97344.28;;;5.16;96.63
9746;BME280;4912;50.836;12.958;2022-12-07T11:47:23;97342.19;;;5.07;96.22
9746;BME280;4912;50.836;12.958;2022-12-07T11:50:07;97341.84;;;5.18;97.00
9746;BME280;4912;50.836;12.958;2022-12-07T11:52:53;97334.31;;;5.09;95.20
9746;BME280;4912;50.836;12.958;2022-12-07T11:55:36;97350.13;;;5.05;95.53
9746;BME280;4912;50.836;12.958;2022-12-07T11:58:22;97342.44;;;5.00;95.52
9746;BME280;4912;50.836;12.958;2022-12-07T12:01:13;97329.50;;;5.01;94.57
9746;BME280;4912;50.836;12.958;2022-12-07T12:03:57;97336.72;;;5.07;94.97
9746;BME280;4912;50.836;12.958;2022-12-07T12:06:34;97323.56;;;5.02;94.75
9746;BME280;4912;50.836;12.958;2022-12-07T12:09:09;97326.63;;;5.17;94.86
9746;BME280;4912;50.836;12.958;2022-12-07T12:12:21;97324.38;;;5.24;93.23
9746;BME280;4912;50.836;12.958;2022-12-07T12:15:33;97327.44;;;5.26;91.58
9746;BME280;4912;50.836;12.958;2022-12-07T12:18:30;97318.69;;;5.19;90.82
9746;BME280;4912;50.836;12.958;2022-12-07T12:21:09;97323.50;;;5.27;91.86
9746;BME280;4912;50.836;12.958;2022-12-07T12:23:50;97324.84;;;5.23;91.37
9746;BME280;4912;50.836;12.958;2022-12-07T12:26:27;97326.25;;;5.27;90.33
9746;BME280;4912;50.836;12.958;2022-12-07T12:29:02;97316.47;;;5.26;89.14
9746;BME280;4912;50.836;12.958;2022-12-07T12:31:37;97319.66;;;5.25;89.36
9746;BME280;4912;50.836;12.958;2022-12-07T12:34:31;97314.38;;;5.30;89.97
9746;BME280;4912;50.836;12.958;2022-12-07T12:43:45;97315.75;;;5.13;92.11
9746;BME280;4912;50.836;12.958;2022-12-07T12:46:47;97321.38;;;4.97;92.37
9746;BME280;4912;50.836;12.958;2022-12-07T12:49:36;97314.16;;;4.90;93.09
9746;BME280;4912;50.836;12.958;2022-12-07T12:58:41;97298.78;;;5.06;93.30
9746;BME280;4912;50.836;12.958;2022-12-07T13:01:40;97307.88;;;5.03;93.11
9746;BME280;4912;50.836;12.958;2022-12-07T13:04:36;97304.88;;;5.22;92.99
9746;BME280;4912;50.836;12.958;2022-12-07T13:10:38;97292.13;;;5.50;90.76
9746;BME280;4912;50.836;12.958;2022-12-07T13:13:36;97288.31;;;5.48;90.28
9746;BME280;4912;50.836;12.958;2022-12-07T13:16:38;97291.34;;;5.50;90.05
9746;BME280;4912;50.836;12.958;2022-12-07T13:22:39;97294.72;;;5.54;89.62
9746;BME280;4912;50.836;12.958;2022-12-07T13:25:19;97286.78;;;5.47;90.09
9746;BME280;4912;50.836;12.958;2022-12-07T13:27:55;97300.22;;;5.54;90.72
9746;BME280;4912;50.836;12.958;2022-12-07T13:30:30;97293.22;;;5.53;89.85
9746;BME280;4912;50.836;12.958;2022-12-07T13:33:03;97288.31;;;5.48;89.04
9746;BME280;4912;50.836;12.958;2022-12-07T13:35:35;97297.47;;;5.54;88.92
9746;BME280;4912;50.836;12.958;2022-12-07T13:38:20;97285.44;;;5.51;88.83
9746;BME280;4912;50.836;12.958;2022-12-07T13:41:04;97286.84;;;5.56;87.86
9746;BME280;4912;50.836;12.958;2022-12-07T13:43:48;97287.34;;;5.63;87.47
9746;BME280;4912;50.836;12.958;2022-12-07T13:46:26;97281.22;;;5.59;87.01
9746;BME280;4912;50.836;12.958;2022-12-07T13:49:17;97296.03;;;5.62;87.46
9746;BME280;4912;50.836;12.958;2022-12-07T13:51:49;97291.44;;;5.59;87.43
9746;BME280;4912;50.836;12.958;2022-12-07T13:54:21;97292.41;;;5.65;87.46
9746;BME280;4912;50.836;12.958;2022-12-07T13:56:52;97290.97;;;5.60;86.71
9746;BME280;4912;50.836;12.958;2022-12-07T13:59:25;97293.47;;;5.46;86.92
9746;BME280;4912;50.836;12.958;2022-12-07T14:02:01;97283.84;;;5.41;87.59
9746;BME280;4912;50.836;12.958;2022-12-07T14:04:33;97283.91;;;5.50;87.73
9746;BME280;4912;50.836;12.958;2022-12-07T14:07:22;97284.84;;;5.56;87.95
9746;BME280;4912;50.836;12.958;2022-12-07T14:09:57;97272.47;;;5.52;87.28
9746;BME280;4912;50.836;12.958;2022-12-07T14:12:29;97276.75;;;5.53;86.99
9746;BME280;4912;50.836;12.958;2022-12-07T14:15:01;97272.09;;;5.41;86.23
9746;BME280;4912;50.836;12.958;2022-12-07T14:17:35;97274.28;;;5.46;86.35
9746;BME280;4912;50.836;12.958;2022-12-07T14:20:29;97264.31;;;5.39;85.78
9746;BME280;4912;50.836;12.958;2022-12-07T14:23:01;97271.78;;;5.39;85.83
9746;BME280;4912;50.836;12.958;2022-12-07T14:25:45;97279.56;;;5.40;86.16
9746;BME280;4912;50.836;12.958;2022-12-07T14:28:28;97274.59;;;5.48;86.14